createdAt,value
2022-11-16T00:02:18.997Z,31.00
2022-11-16T00:04:45.866Z,30.83
2022-11-16T00:07:19.160Z,31.48
2022-11-16T00:09:53.051Z,29.48
2022-11-16T00:12:26.042Z,31.75
2022-11-16T00:14:52.902Z,33.28
2022-11-16T00:17:26.050Z,34.42
2022-11-16T00:19:52.912Z,31.55
2022-11-16T00:22:26.064Z,30.25
2022-11-16T00:24:53.012Z,32.72
2022-11-16T00:27:19.901Z,31.00
2022-11-16T00:29:53.061Z,33.88
2022-11-16T00:32:19.905Z,33.00
2022-11-16T00:34:53.100Z,33.80
2022-11-16T00:37:19.969Z,32.50
2022-11-16T00:39:46.835Z,31.65
2022-11-16T00:42:20.077Z,35.13
2022-11-16T00:44:47.001Z,33.55
2022-11-16T00:47:20.054Z,34.75
2022-11-16T00:49:46.911Z,36.53
2022-11-16T00:52:20.065Z,34.15
2022-11-16T00:54:46.919Z,32.63
2022-11-16T00:57:20.064Z,31.98
2022-11-16T00:59:46.937Z,35.92
2022-11-16T01:02:13.790Z,33.33
2022-11-16T01:04:47.097Z,30.73
2022-11-16T01:07:13.995Z,31.75
2022-11-16T01:09:47.085Z,33.83
2022-11-16T01:12:13.926Z,30.83
2022-11-16T01:14:50.139Z,29.85
2022-11-16T01:17:16.997Z,27.10
2022-11-16T01:19:50.237Z,29.45
2022-11-16T01:22:17.097Z,31.77
2022-11-16T01:24:52.094Z,33.17
2022-11-16T01:27:18.960Z,32.75
2022-11-16T01:29:45.808Z,29.92
2022-11-16T01:32:19.066Z,32.60
2022-11-16T01:34:52.127Z,29.15
2022-11-16T01:37:19.133Z,32.58
2022-11-16T01:39:46.028Z,34.45
2022-11-16T01:42:38.122Z,32.83
2022-11-16T01:45:28.098Z,33.55
2022-11-16T01:47:54.946Z,33.03
2022-11-16T01:50:28.122Z,33.20
2022-11-16T01:52:58.163Z,29.23
2022-11-16T01:55:31.072Z,32.42
2022-11-16T01:57:57.884Z,36.03
2022-11-16T02:00:31.161Z,33.17
2022-11-16T02:03:04.112Z,33.92
2022-11-16T02:06:18.525Z,32.85
2022-11-16T02:09:17.100Z,34.33
2022-11-16T02:12:13.245Z,32.67
2022-11-16T02:15:12.618Z,30.80
2022-11-16T02:18:18.094Z,30.50
2022-11-16T02:21:33.120Z,30.60
2022-11-16T02:24:09.090Z,33.35
2022-11-16T02:27:26.116Z,34.88
2022-11-16T02:29:54.150Z,34.22
2022-11-16T02:33:08.157Z,37.35
2022-11-16T02:35:47.647Z,33.47
2022-11-16T02:38:37.242Z,35.08
2022-11-16T02:41:11.067Z,33.85
2022-11-16T02:44:09.120Z,35.55
2022-11-16T02:46:40.407Z,36.05
2022-11-16T02:49:18.153Z,29.95
2022-11-16T02:51:51.817Z,30.75
2022-11-16T02:54:27.132Z,34.53
2022-11-16T02:57:10.130Z,38.10
2022-11-16T02:59:42.747Z,31.52
2022-11-16T03:02:56.107Z,35.65
2022-11-16T03:05:53.873Z,31.08
2022-11-16T03:08:29.189Z,31.20
2022-11-16T03:11:00.447Z,33.63
2022-11-16T03:13:36.123Z,30.65
2022-11-16T03:16:07.753Z,31.33
2022-11-16T03:18:41.141Z,31.77
2022-11-16T03:21:32.134Z,31.50
2022-11-16T03:24:05.180Z,32.83
2022-11-16T03:26:56.843Z,32.00
2022-11-16T03:29:48.202Z,30.70
2022-11-16T03:32:25.747Z,29.58
2022-11-16T03:35:37.146Z,34.58
2022-11-16T03:38:04.821Z,31.75
2022-11-16T03:40:40.172Z,31.75
2022-11-16T03:43:07.104Z,33.40
2022-11-16T03:45:33.984Z,29.85
2022-11-16T03:48:07.160Z,32.28
2022-11-16T03:50:34.022Z,32.05
2022-11-16T03:53:07.140Z,31.50
2022-11-16T03:55:33.983Z,32.63
2022-11-16T03:58:07.142Z,33.08
2022-11-16T04:00:34.115Z,31.77
2022-11-16T04:03:07.166Z,29.15
2022-11-16T04:05:34.012Z,28.85
2022-11-16T04:08:07.161Z,33.35
2022-11-16T04:10:40.176Z,29.08
2022-11-16T04:13:10.142Z,32.45
2022-11-16T04:15:37.030Z,35.17
2022-11-16T04:18:10.147Z,36.65
2022-11-16T04:20:36.974Z,33.33
2022-11-16T04:23:15.177Z,35.53
2022-11-16T04:25:42.047Z,33.42
2022-11-16T04:28:15.159Z,32.55
2022-11-16T04:30:53.147Z,30.30
2022-11-16T04:33:26.170Z,32.05
2022-11-16T04:35:53.047Z,30.65
2022-11-16T04:38:26.223Z,29.30
2022-11-16T04:40:53.117Z,31.20
2022-11-16T04:43:26.200Z,32.55
2022-11-16T04:45:53.052Z,30.48
2022-11-16T04:48:26.169Z,36.17
2022-11-16T04:50:53.017Z,45.97
2022-11-16T04:53:19.842Z,60.30
2022-11-16T04:55:57.969Z,51.10
2022-11-16T04:58:27.389Z,33.78
2022-11-16T05:01:01.199Z,32.78
2022-11-16T05:03:28.067Z,34.65
2022-11-16T05:06:01.201Z,34.45
2022-11-16T05:08:28.045Z,34.33
2022-11-16T05:11:01.212Z,34.42
2022-11-16T05:13:34.206Z,32.05
2022-11-16T05:16:01.045Z,33.38
2022-11-16T05:18:34.566Z,32.38
2022-11-16T05:21:01.593Z,32.45
2022-11-16T05:23:28.488Z,31.77
2022-11-16T05:26:02.205Z,25.30
2022-11-16T05:28:29.060Z,24.02
2022-11-16T05:31:02.225Z,26.45
2022-11-16T05:33:29.057Z,29.20
2022-11-16T05:36:02.197Z,31.17
2022-11-16T05:38:29.047Z,28.70
2022-11-16T05:40:55.875Z,27.73
2022-11-16T05:43:29.206Z,28.08
2022-11-16T05:45:56.045Z,26.98
2022-11-16T05:48:29.219Z,26.70
2022-11-16T05:50:59.981Z,26.02
2022-11-16T05:53:33.224Z,27.45
2022-11-16T05:56:00.182Z,27.95
2022-11-16T05:58:27.136Z,28.52
2022-11-16T06:01:00.284Z,30.85
2022-11-16T06:03:37.292Z,26.92
2022-11-16T06:06:04.962Z,27.67
2022-11-16T06:08:32.079Z,29.10
2022-11-16T06:11:10.259Z,28.27
2022-11-16T06:13:43.233Z,26.55
2022-11-16T06:16:10.229Z,26.38
2022-11-16T06:18:49.264Z,25.90
2022-11-16T06:21:17.948Z,31.13
2022-11-16T06:23:51.219Z,27.40
2022-11-16T06:26:24.255Z,27.58
2022-11-16T06:28:51.102Z,26.73
2022-11-16T06:31:24.232Z,30.65
2022-11-16T06:33:51.107Z,29.88
2022-11-16T06:36:24.294Z,25.00
2022-11-16T06:38:51.133Z,22.27
2022-11-16T06:41:18.205Z,23.27
2022-11-16T06:43:52.269Z,25.05
2022-11-16T06:46:19.134Z,20.55
2022-11-16T06:48:52.279Z,22.55
2022-11-16T06:51:19.118Z,18.92
2022-11-16T06:53:52.272Z,18.27
2022-11-16T06:56:25.302Z,21.27
2022-11-16T06:58:58.273Z,20.92
2022-11-16T07:01:25.206Z,19.23
2022-11-16T07:03:58.278Z,19.90
2022-11-16T07:06:25.169Z,19.60
2022-11-16T07:08:52.031Z,20.15
2022-11-16T07:11:25.234Z,18.88
2022-11-16T07:13:52.077Z,19.63
2022-11-16T07:16:25.280Z,17.90
2022-11-16T07:18:59.313Z,13.90
2022-11-16T07:21:26.263Z,13.95
2022-11-16T07:24:00.263Z,14.32
2022-11-16T07:26:27.196Z,12.35
2022-11-16T07:28:54.037Z,11.63
2022-11-16T07:31:27.343Z,11.50
2022-11-16T07:34:01.289Z,10.40
2022-11-16T07:36:34.312Z,11.48
2022-11-16T07:39:01.404Z,11.88
2022-11-16T07:41:35.351Z,16.70
2022-11-16T07:44:02.241Z,20.17
2022-11-16T07:46:45.873Z,27.88
2022-11-16T07:49:25.298Z,24.52
2022-11-16T07:51:52.155Z,20.63
2022-11-16T07:54:25.332Z,26.33
2022-11-16T07:56:55.185Z,53.00
2022-11-16T07:59:28.297Z,31.52
2022-11-16T08:02:01.345Z,27.45
2022-11-16T08:04:28.303Z,38.78
2022-11-16T08:07:01.370Z,25.73
2022-11-16T08:09:28.289Z,15.77
2022-11-16T08:11:55.113Z,11.40
2022-11-16T08:14:28.301Z,11.30
2022-11-16T08:17:01.335Z,9.45
2022-11-16T08:19:28.176Z,9.05
2022-11-16T08:21:55.307Z,9.18
2022-11-16T08:24:28.392Z,9.02
2022-11-16T08:26:55.254Z,12.90
2022-11-16T08:29:22.121Z,10.35
2022-11-16T08:31:55.342Z,8.75
2022-11-16T08:34:22.264Z,10.90
2022-11-16T08:36:55.334Z,10.15
2022-11-16T08:39:22.297Z,10.20
2022-11-16T08:41:55.293Z,17.30
2022-11-16T08:44:22.199Z,13.43
2022-11-16T08:47:03.322Z,12.70
2022-11-16T08:49:36.317Z,15.32
2022-11-16T08:52:16.324Z,16.83
2022-11-16T08:54:43.164Z,11.45
2022-11-16T08:57:16.354Z,11.98
2022-11-16T08:59:43.456Z,14.77
2022-11-16T09:02:17.403Z,14.48
2022-11-16T09:04:44.324Z,14.02
2022-11-16T09:07:11.247Z,11.38
2022-11-16T09:09:44.342Z,11.55
2022-11-16T09:12:11.188Z,10.82
2022-11-16T09:14:44.323Z,11.70
2022-11-16T09:17:11.242Z,13.43
2022-11-16T09:19:44.317Z,11.02
2022-11-16T09:22:11.220Z,11.95
2022-11-16T09:24:38.066Z,12.50
2022-11-16T09:27:11.356Z,10.18
2022-11-16T09:29:38.214Z,10.23
2022-11-16T09:32:12.367Z,12.82
2022-11-16T09:34:39.268Z,12.70
2022-11-16T09:37:12.349Z,14.65
2022-11-16T09:39:39.189Z,14.80
2022-11-16T09:42:34.384Z,13.93
2022-11-16T09:45:15.748Z,14.30
2022-11-16T09:47:56.367Z,14.35
2022-11-16T09:50:51.810Z,15.38
2022-11-16T09:53:32.722Z,14.98
2022-11-16T09:56:10.602Z,20.42
2022-11-16T09:58:55.358Z,23.10
2022-11-16T10:01:30.047Z,22.05
2022-11-16T10:04:39.381Z,20.95
2022-11-16T10:07:31.391Z,23.70
2022-11-16T10:09:58.339Z,26.30
2022-11-16T10:12:40.376Z,61.97
2022-11-16T10:15:32.806Z,51.63
2022-11-16T10:18:30.376Z,31.98
2022-11-16T10:21:39.362Z,30.10
2022-11-16T10:24:39.358Z,24.10
2022-11-16T10:27:21.831Z,24.33
2022-11-16T10:30:05.409Z,26.10
2022-11-16T10:32:41.236Z,23.30
2022-11-16T10:35:17.397Z,26.42
2022-11-16T10:37:51.219Z,25.20
2022-11-16T10:40:33.406Z,25.65
2022-11-16T10:43:16.016Z,21.63
2022-11-16T10:46:23.462Z,19.80
2022-11-16T10:49:09.127Z,18.80
2022-11-16T10:51:42.471Z,17.05
2022-11-16T10:54:23.399Z,17.50
2022-11-16T10:57:13.408Z,19.83
2022-11-16T10:59:46.986Z,18.48
2022-11-16T11:02:41.409Z,19.70
2022-11-16T11:05:19.272Z,18.98
2022-11-16T11:07:59.689Z,22.17
2022-11-16T11:10:33.700Z,18.83
2022-11-16T11:13:19.401Z,17.70
2022-11-16T11:15:46.364Z,18.50
2022-11-16T11:18:29.491Z,18.77
2022-11-16T11:21:05.552Z,15.07
2022-11-16T11:23:53.400Z,17.30
2022-11-16T11:26:37.319Z,18.55
2022-11-16T11:29:25.750Z,16.88
2022-11-16T11:32:24.484Z,14.02
2022-11-16T11:34:53.629Z,12.45
2022-11-16T11:37:39.422Z,15.65
2022-11-16T11:40:19.975Z,16.38
2022-11-16T11:43:03.423Z,13.95
2022-11-16T11:45:46.291Z,11.90
2022-11-16T11:48:48.439Z,13.48
2022-11-16T11:51:36.736Z,11.23
2022-11-16T11:54:10.424Z,9.48
2022-11-16T11:56:37.265Z,20.23
2022-11-16T11:59:10.452Z,21.52
2022-11-16T12:02:02.049Z,22.15
2022-11-16T12:05:26.450Z,13.25
2022-11-16T12:08:35.430Z,12.13
2022-11-16T12:11:24.155Z,10.70
2022-11-16T12:14:06.457Z,11.60
2022-11-16T12:16:44.473Z,9.18
2022-11-16T12:20:14.449Z,12.05
2022-11-16T12:23:19.432Z,14.32
2022-11-16T12:26:17.450Z,17.30
2022-11-16T12:30:09.342Z,9.38
2022-11-16T12:33:07.470Z,10.23
2022-11-16T12:36:08.037Z,9.48
2022-11-16T12:38:43.490Z,10.20
2022-11-16T12:41:48.613Z,11.60
2022-11-16T12:45:01.442Z,13.27
2022-11-16T12:47:44.801Z,11.57
2022-11-16T12:50:50.481Z,12.50
2022-11-16T12:53:38.578Z,11.82
2022-11-16T12:56:53.520Z,15.77
2022-11-16T12:59:53.822Z,14.50
2022-11-16T13:03:21.447Z,13.95
2022-11-16T13:06:11.486Z,15.07
2022-11-16T13:09:02.855Z,19.55
2022-11-16T13:11:46.456Z,31.75
2022-11-16T13:14:19.390Z,21.52
2022-11-16T13:16:52.477Z,15.48
2022-11-16T13:19:19.393Z,13.55
2022-11-16T13:22:03.530Z,15.10
2022-11-16T13:24:48.437Z,15.88
2022-11-16T13:27:55.501Z,14.55
2022-11-16T13:30:37.486Z,15.20
2022-11-16T13:33:38.491Z,18.10
2022-11-16T13:36:42.506Z,21.10
2022-11-16T13:39:20.344Z,20.77
2022-11-16T13:42:12.482Z,19.17
2022-11-16T13:44:51.315Z,18.75
2022-11-16T13:47:25.644Z,17.20
2022-11-16T13:50:04.510Z,20.67
2022-11-16T13:55:50.496Z,18.40
2022-11-16T13:58:21.258Z,18.48
2022-11-16T14:01:14.556Z,17.73
2022-11-16T14:03:42.561Z,18.52
2022-11-16T14:06:31.535Z,17.20
2022-11-16T14:08:59.300Z,18.00
2022-11-16T14:11:46.531Z,16.15
2022-11-16T14:14:52.275Z,17.35
2022-11-16T14:17:58.523Z,19.50
2022-11-16T14:20:51.368Z,17.02
2022-11-16T14:23:55.507Z,16.58
2022-11-16T14:27:13.557Z,20.25
2022-11-16T14:30:19.089Z,16.05
2022-11-16T14:32:57.526Z,26.20
2022-11-16T14:35:37.268Z,28.10
2022-11-16T14:38:26.519Z,27.25
2022-11-16T14:40:58.935Z,23.35
2022-11-16T14:43:41.532Z,23.55
2022-11-16T14:46:33.235Z,19.17
2022-11-16T14:49:07.547Z,16.83
2022-11-16T14:51:36.520Z,17.45
2022-11-16T14:54:34.543Z,17.13
2022-11-16T14:57:06.943Z,18.58
2022-11-16T14:59:40.530Z,17.77
2022-11-16T15:02:22.559Z,18.88
2022-11-16T15:04:56.567Z,17.80
2022-11-16T15:07:23.583Z,18.58
2022-11-16T15:09:59.565Z,18.38
2022-11-16T15:12:39.171Z,18.08
2022-11-16T15:15:36.610Z,19.38
2022-11-16T15:18:09.654Z,16.67
2022-11-16T15:20:44.620Z,17.95
2022-11-16T15:23:23.840Z,16.60
2022-11-16T15:26:04.545Z,23.10
2022-11-16T15:28:38.582Z,22.23
2022-11-16T15:31:12.616Z,26.00
2022-11-16T15:33:49.565Z,25.88
2022-11-16T15:36:35.089Z,23.10
2022-11-16T15:39:08.629Z,24.90
2022-11-16T15:41:41.632Z,28.23
2022-11-16T15:44:15.013Z,31.90
2022-11-16T15:46:51.632Z,30.67
2022-11-16T15:49:30.361Z,28.27
2022-11-16T15:52:06.594Z,29.92
2022-11-16T15:54:35.057Z,28.92
2022-11-16T15:57:13.740Z,29.63
2022-11-16T15:59:40.715Z,30.67
2022-11-16T16:02:29.674Z,26.92
2022-11-16T16:04:56.795Z,30.13
2022-11-16T16:07:43.570Z,38.72
2022-11-16T16:10:23.381Z,41.17
2022-11-16T16:13:04.616Z,39.70
2022-11-16T16:15:34.247Z,39.92
2022-11-16T16:18:08.628Z,39.85
2022-11-16T16:20:35.589Z,40.92
2022-11-16T16:23:20.628Z,50.33
2022-11-16T16:25:50.480Z,46.53
2022-11-16T16:28:24.631Z,46.92
2022-11-16T16:30:51.666Z,44.97
2022-11-16T16:33:21.812Z,44.60
2022-11-16T16:35:55.650Z,45.50
2022-11-16T16:38:22.610Z,41.53
2022-11-16T16:40:55.698Z,44.67
2022-11-16T16:43:22.693Z,48.95
2022-11-16T16:45:49.722Z,36.50
2022-11-16T16:48:23.623Z,41.35
2022-11-16T16:50:50.618Z,37.50
2022-11-16T16:53:23.670Z,36.17
2022-11-16T16:55:50.692Z,33.72
2022-11-16T16:58:24.641Z,32.97
2022-11-16T17:00:53.708Z,31.58
2022-11-16T17:03:30.610Z,32.10
2022-11-16T17:06:01.373Z,31.52
2022-11-16T17:08:40.670Z,34.22
2022-11-16T17:11:07.624Z,29.42
2022-11-16T17:13:34.857Z,28.55
2022-11-16T17:16:11.713Z,30.75
2022-11-16T17:18:45.658Z,35.25
2022-11-16T17:21:12.924Z,34.17
2022-11-16T17:23:39.905Z,31.30
2022-11-16T17:26:14.715Z,28.63
2022-11-16T17:28:41.742Z,34.25
2022-11-16T17:31:16.739Z,37.90
2022-11-16T17:33:43.694Z,37.10
2022-11-16T17:36:18.637Z,35.47
2022-11-16T17:38:45.578Z,35.47
2022-11-16T17:41:26.661Z,34.97
2022-11-16T17:43:54.119Z,29.70
2022-11-16T17:46:23.031Z,29.05
2022-11-16T17:48:57.769Z,31.40
2022-11-16T17:51:25.295Z,30.27
2022-11-16T17:53:58.664Z,28.75
2022-11-16T17:56:26.640Z,30.00
2022-11-16T17:59:00.660Z,37.15
2022-11-16T18:01:27.801Z,30.42
2022-11-16T18:03:54.882Z,30.98
2022-11-16T18:06:29.745Z,32.78
2022-11-16T18:08:57.169Z,30.17
2022-11-16T18:11:27.712Z,28.85
2022-11-16T18:14:03.670Z,31.42
2022-11-16T18:16:32.358Z,26.60
2022-11-16T18:19:07.672Z,25.38
2022-11-16T18:21:47.681Z,28.30
2022-11-16T18:24:14.704Z,29.10
2022-11-16T18:26:47.682Z,29.38
2022-11-16T18:29:20.759Z,28.45
2022-11-16T18:31:47.767Z,29.25
2022-11-16T18:34:21.737Z,31.05
2022-11-16T18:36:48.556Z,26.27
2022-11-16T18:39:15.403Z,29.08
2022-11-16T18:41:54.994Z,28.92
2022-11-16T18:44:22.397Z,29.10
2022-11-16T18:46:55.667Z,28.10
2022-11-16T18:49:22.489Z,29.35
2022-11-16T18:51:55.655Z,30.17
2022-11-16T18:54:22.517Z,35.35
2022-11-16T18:56:49.378Z,36.10
2022-11-16T18:59:22.702Z,29.25
2022-11-16T19:01:49.746Z,29.13
2022-11-16T19:04:16.711Z,31.13
2022-11-16T19:06:50.758Z,29.23
2022-11-16T19:09:17.802Z,27.70
2022-11-16T19:11:51.701Z,34.63
2022-11-16T19:14:24.696Z,32.03
2022-11-16T19:16:56.885Z,31.73
2022-11-16T19:19:24.313Z,31.88
2022-11-16T19:21:57.736Z,29.75
2022-11-16T19:24:24.741Z,29.90
2022-11-16T19:26:58.713Z,37.15
2022-11-16T19:29:25.739Z,42.05
2022-11-16T19:31:59.718Z,40.63
2022-11-16T19:34:32.991Z,33.28
2022-11-16T19:37:06.708Z,31.80
2022-11-16T19:39:33.702Z,35.47
2022-11-16T19:42:00.756Z,31.83
2022-11-16T19:44:34.832Z,32.80
2022-11-16T19:47:01.813Z,32.67
2022-11-16T19:49:35.724Z,32.70
2022-11-16T19:52:02.829Z,30.73
2022-11-16T19:54:36.739Z,33.03
2022-11-16T19:57:03.790Z,36.50
2022-11-16T19:59:30.762Z,37.13
2022-11-16T20:02:04.771Z,37.35
2022-11-16T20:04:31.812Z,33.97
2022-11-16T20:07:05.765Z,36.13
2022-11-16T20:09:33.002Z,41.30
2022-11-16T20:12:06.745Z,41.95
2022-11-16T20:14:33.880Z,37.63
2022-11-16T20:17:07.907Z,37.50
2022-11-16T20:19:34.820Z,46.75
2022-11-16T20:22:01.869Z,59.40
2022-11-16T20:24:35.769Z,59.92
2022-11-16T20:27:02.785Z,41.85
2022-11-16T20:29:36.758Z,35.38
2022-11-16T20:32:03.819Z,28.02
2022-11-16T20:34:37.831Z,26.48
2022-11-16T20:37:04.857Z,34.47
2022-11-16T20:39:38.824Z,28.88
2022-11-16T20:42:06.014Z,31.23
2022-11-16T20:44:39.978Z,27.38
2022-11-16T20:47:07.038Z,28.27
2022-11-16T20:49:34.041Z,29.58
2022-11-16T20:52:07.761Z,30.33
2022-11-16T20:54:41.511Z,28.80
2022-11-16T20:57:14.811Z,27.15
2022-11-16T20:59:41.723Z,29.13
2022-11-16T21:02:16.771Z,30.00
2022-11-16T21:04:52.790Z,30.05
2022-11-16T21:07:23.252Z,26.00
2022-11-16T21:09:56.761Z,34.55
2022-11-16T21:12:24.846Z,33.55
2022-11-16T21:14:58.804Z,32.80
2022-11-16T21:17:25.771Z,31.50
2022-11-16T21:20:25.324Z,34.78
2022-11-16T21:22:45.747Z,30.45
2022-11-16T21:25:18.840Z,34.38
2022-11-16T21:27:52.729Z,27.30
2022-11-16T21:30:19.916Z,32.80
2022-11-16T21:32:46.817Z,36.40
2022-11-16T21:35:20.863Z,39.03
2022-11-16T21:37:47.890Z,30.67
2022-11-16T21:40:21.821Z,31.95
2022-11-16T21:42:48.863Z,27.70
2022-11-16T21:45:22.813Z,31.25
2022-11-16T21:47:56.751Z,28.45
2022-11-16T21:50:31.683Z,26.63
2022-11-16T21:53:06.822Z,26.08
2022-11-16T21:55:33.992Z,28.40
2022-11-16T21:58:01.310Z,28.88
2022-11-16T22:00:34.852Z,29.45
2022-11-16T22:03:01.927Z,26.17
2022-11-16T22:05:28.974Z,26.00
2022-11-16T22:08:02.777Z,105.25
2022-11-16T22:10:37.021Z,103.90
2022-11-16T22:13:04.100Z,76.05
2022-11-16T22:15:37.809Z,39.22
2022-11-16T22:18:05.086Z,30.60
2022-11-16T22:20:32.069Z,28.30
2022-11-16T22:23:06.120Z,33.70
2022-11-16T22:25:33.200Z,31.17
2022-11-16T22:28:20.699Z,30.90
2022-11-16T22:30:53.849Z,32.08
2022-11-16T22:33:20.984Z,31.90
2022-11-16T22:35:54.930Z,33.95
2022-11-16T22:38:22.095Z,31.73
2022-11-16T22:40:53.252Z,35.08
2022-11-16T22:43:27.893Z,31.92
2022-11-16T22:46:08.910Z,29.92
2022-11-16T22:48:40.355Z,29.65
2022-11-16T22:51:26.887Z,33.08
2022-11-16T22:53:57.464Z,37.42
2022-11-16T22:56:30.804Z,39.42
2022-11-16T22:58:57.961Z,44.17
2022-11-16T23:01:31.943Z,41.17
2022-11-16T23:03:58.947Z,33.80
2022-11-16T23:06:32.872Z,35.20
2022-11-16T23:09:00.028Z,36.20
2022-11-16T23:11:34.007Z,36.40
2022-11-16T23:14:01.247Z,40.80
2022-11-16T23:16:28.380Z,43.17
2022-11-16T23:19:01.881Z,41.83
2022-11-16T23:21:28.861Z,39.30
2022-11-16T23:24:02.829Z,36.17
2022-11-16T23:26:35.855Z,34.83
2022-11-16T23:29:02.864Z,32.10
2022-11-16T23:31:35.844Z,31.40
2022-11-16T23:34:02.999Z,32.53
2022-11-16T23:36:36.952Z,32.35
2022-11-16T23:39:03.964Z,33.53
2022-11-16T23:41:37.881Z,30.92
2022-11-16T23:44:11.922Z,27.90
2022-11-16T23:46:45.837Z,31.83
2022-11-16T23:49:12.738Z,28.33
2022-11-16T23:51:45.841Z,28.80
2022-11-16T23:54:12.748Z,27.92
2022-11-16T23:56:45.848Z,29.70
2022-11-16T23:59:12.800Z,25.20
